Time;durP1;ratioP1;P1;durP2;ratioP2;P2;SDS_P1;SDS_P2;PMS_P1;PMS_P2;Temp;Humidity;BMP_temperature;BMP_pressure;BME280_temperature;BME280_humidity;BME280_pressure;Samples;Min_cycle;Max_cycle;Signal;HPM_P1;HPM_P2
2021/08/28 00:01:56;;;;;;;5.15;3.20;;;;;;;10.68;87.90;101500.09;5062822;28;20054;-83
2021/08/28 00:04:22;;;;;;;4.80;3.70;;;;;;;10.63;87.53;101504.53;5062569;28;20116;-83
2021/08/28 00:06:47;;;;;;;9.27;4.43;;;;;;;10.53;87.25;101505.88;5065074;28;20669;-83
2021/08/28 00:09:13;;;;;;;7.80;3.63;;;;;;;10.49;87.25;101502.03;5079884;28;20027;-83
2021/08/28 00:11:39;;;;;;;6.18;3.80;;;;;;;10.44;87.00;101504.59;5063685;28;20027;-82
2021/08/28 00:14:04;;;;;;;8.25;4.15;;;;;;;10.44;87.13;101506.47;5065080;28;20056;-84
2021/08/28 00:16:30;;;;;;;4.32;3.83;;;;;;;10.41;87.17;101505.06;5064875;28;20413;-85
2021/08/28 00:18:56;;;;;;;4.60;3.47;;;;;;;10.33;86.96;101500.00;5081338;28;20032;-84
2021/08/28 00:21:21;;;;;;;10.80;5.20;;;;;;;10.23;87.45;101499.72;5067032;28;21248;-84
2021/08/28 00:23:47;;;;;;;4.45;3.83;;;;;;;10.21;87.66;101502.63;5066388;28;20051;-83
2021/08/28 00:26:12;;;;;;;8.18;3.80;;;;;;;10.20;87.54;101502.84;5070472;28;20163;-83
2021/08/28 00:28:38;;;;;;;5.68;3.30;;;;;;;10.16;87.28;101501.66;5068955;28;20114;-83
2021/08/28 00:31:04;;;;;;;5.03;3.30;;;;;;;10.11;87.44;101510.38;5068922;28;20027;-84
2021/08/28 00:33:30;;;;;;;4.65;3.17;;;;;;;10.08;86.96;101513.50;5067245;28;20031;-83
2021/08/28 00:35:55;;;;;;;6.63;3.60;;;;;;;10.04;86.91;101516.84;5069361;28;20032;-84
2021/08/28 00:38:21;;;;;;;63.05;8.40;;;;;;;10.02;86.87;101513.56;5067606;28;20031;-84
2021/08/28 00:40:46;;;;;;;11.18;5.22;;;;;;;9.97;87.15;101519.63;5067110;28;20116;-84
2021/08/28 00:43:12;;;;;;;6.32;5.03;;;;;;;9.96;87.16;101516.13;5067572;28;20070;-83
2021/08/28 00:45:44;;;;;;;6.30;4.55;;;;;;;9.89;87.16;101514.59;5067577;28;20127;-84
2021/08/28 00:48:19;;;;;;;9.57;5.40;;;;;;;9.82;87.03;101511.97;5060894;28;20024;-84
2021/08/28 00:50:45;;;;;;;8.45;5.35;;;;;;;9.81;87.50;101514.88;5066662;28;20035;-86
2021/08/28 00:53:13;;;;;;;30.83;8.32;;;;;;;9.71;88.79;101518.09;5081849;28;20859;-83
2021/08/28 00:55:40;;;;;;;15.07;7.03;;;;;;;9.70;89.46;101519.13;5068011;28;20028;-84
2021/08/28 00:58:06;;;;;;;20.52;8.35;;;;;;;9.68;92.59;101511.28;5064735;28;20024;-85
2021/08/28 01:00:47;;;;;;;11.63;6.38;;;;;;;9.71;91.18;101518.09;5069434;28;20436;-84
2021/08/28 01:03:18;;;;;;;10.18;5.93;;;;;;;9.70;91.34;101513.78;5084037;28;20095;-84
2021/08/28 01:06:05;;;;;;;5.43;4.30;;;;;;;9.68;90.26;101515.84;5068355;28;20032;-84
2021/08/28 01:08:45;;;;;;;3.63;2.90;;;;;;;9.64;89.76;101517.31;5066203;28;20107;-84
2021/08/28 01:11:40;;;;;;;6.78;4.20;;;;;;;9.54;89.41;101525.06;5066198;28;20040;-85
2021/08/28 01:14:15;;;;;;;12.23;6.17;;;;;;;9.49;89.00;101525.72;5067106;28;20020;-83
2021/08/28 01:16:47;;;;;;;8.02;5.43;;;;;;;9.52;89.29;101530.63;5082686;28;20285;-82
2021/08/28 01:19:28;;;;;;;8.05;5.15;;;;;;;9.45;89.40;101529.88;5083881;28;20043;-83
2021/08/28 01:21:54;;;;;;;8.00;5.18;;;;;;;9.34;90.92;101528.75;5067335;28;20177;-83
2021/08/28 01:24:21;;;;;;;8.30;5.32;;;;;;;9.25;92.10;101534.59;5082213;28;20206;-83
2021/08/28 01:27:04;;;;;;;17.27;7.10;;;;;;;9.25;93.05;101531.94;5061254;28;20028;-83
2021/08/28 01:29:33;;;;;;;7.93;5.57;;;;;;;9.29;92.46;101530.44;5063796;28;20689;-83
2021/08/28 01:32:00;;;;;;;6.07;4.72;;;;;;;9.34;91.32;101531.44;5080326;28;20060;-83
2021/08/28 01:34:28;;;;;;;10.13;5.80;;;;;;;9.35;91.55;101527.72;5063958;28;20029;-83
2021/08/28 01:36:55;;;;;;;7.53;4.68;;;;;;;9.36;91.52;101531.22;5061098;28;20085;-84
2021/08/28 01:39:21;;;;;;;6.00;4.35;;;;;;;9.38;91.08;101531.81;5060652;28;20070;-83
2021/08/28 01:41:50;;;;;;;7.05;4.22;;;;;;;9.43;90.83;101533.81;5081917;28;20035;-83
2021/08/28 01:44:17;;;;;;;7.65;4.32;;;;;;;9.50;90.48;101531.88;5067411;28;20048;-83
2021/08/28 01:46:43;;;;;;;8.15;4.43;;;;;;;9.56;90.03;101525.66;5066015;28;20053;-83
2021/08/28 01:49:10;;;;;;;4.57;3.88;;;;;;;9.62;89.78;101522.91;5066562;28;20028;-84
2021/08/28 01:51:41;;;;;;;8.32;4.10;;;;;;;9.68;89.20;101523.84;5068636;28;20058;-84
2021/08/28 01:54:06;;;;;;;4.68;3.72;;;;;;;9.73;89.00;101521.34;5067327;28;20774;-84
2021/08/28 01:56:33;;;;;;;7.32;3.70;;;;;;;9.77;88.84;101514.50;5068978;28;20119;-84
2021/08/28 01:59:00;;;;;;;8.30;3.55;;;;;;;9.82;88.53;101511.97;5081195;28;20055;-85
2021/08/28 02:01:27;;;;;;;7.55;4.75;;;;;;;9.85;88.54;101519.53;5066181;28;21579;-85
2021/08/28 02:03:52;;;;;;;5.18;3.85;;;;;;;9.92;88.29;101514.94;5067825;28;20103;-84
2021/08/28 02:06:49;;;;;;;7.18;3.78;;;;;;;9.96;88.21;101509.94;5069107;28;20123;-83
2021/08/28 02:09:23;;;;;;;7.80;4.20;;;;;;;10.06;88.30;101518.28;5061537;28;20058;-83
2021/08/28 02:11:51;;;;;;;7.90;4.30;;;;;;;10.15;87.95;101513.41;5084967;28;20482;-84
2021/08/28 02:14:24;;;;;;;13.02;4.75;;;;;;;10.19;87.94;101512.72;5068080;28;20054;-85
2021/08/28 02:16:50;;;;;;;71.82;8.18;;;;;;;10.21;88.68;101512.53;5066180;28;20027;-84
2021/08/28 02:19:27;;;;;;;13.38;6.03;;;;;;;10.26;88.30;101512.69;5065036;28;20031;-84
2021/08/28 02:21:56;;;;;;;10.18;5.63;;;;;;;10.36;88.67;101518.28;5064494;28;20471;-85
2021/08/28 02:24:26;;;;;;;49.75;8.77;;;;;;;10.41;88.79;101514.94;5067659;28;20028;-84
2021/08/28 02:26:59;;;;;;;89.50;10.18;;;;;;;10.43;89.48;101518.22;5081265;28;20023;-86
2021/08/28 02:29:37;;;;;;;16.70;6.60;;;;;;;10.45;89.46;101519.63;5064304;28;20063;-84
2021/08/28 02:32:05;;;;;;;22.23;7.75;;;;;;;10.52;89.96;101511.47;5081977;28;20024;-84
2021/08/28 02:34:33;;;;;;;27.50;8.48;;;;;;;10.57;89.83;101520.44;5081617;28;20036;-83
2021/08/28 02:37:01;;;;;;;23.33;7.70;;;;;;;10.65;89.98;101523.88;5081823;28;20028;-84
2021/08/28 02:39:28;;;;;;;13.73;8.00;;;;;;;10.72;90.11;101522.72;5080781;28;20032;-83
2021/08/28 02:41:56;;;;;;;80.97;11.68;;;;;;;10.79;90.23;101518.09;5060640;28;20028;-84
2021/08/28 02:44:25;;;;;;;54.05;10.82;;;;;;;10.84;90.56;101528.09;5066501;28;20028;-84
2021/08/28 02:46:53;;;;;;;57.75;10.68;;;;;;;10.88;90.73;101524.72;5065130;28;20032;-84
2021/08/28 02:49:21;;;;;;;36.10;9.75;;;;;;;10.93;90.99;101532.06;5064527;28;20028;-84
2021/08/28 02:51:48;;;;;;;14.00;7.57;;;;;;;10.99;91.15;101535.72;5067042;28;20030;-85
2021/08/28 02:54:16;;;;;;;41.30;8.95;;;;;;;11.03;90.97;101537.69;5068018;28;20513;-84
2021/08/28 02:56:47;;;;;;;116.88;13.73;;;;;;;11.07;91.27;101541.53;5060729;28;20028;-84
2021/08/28 02:59:15;;;;;;;43.63;10.48;;;;;;;11.12;91.45;101543.50;5063361;28;20034;-84
2021/08/28 03:01:41;;;;;;;43.90;9.32;;;;;;;11.15;91.43;101541.22;5062634;28;20036;-84
2021/08/28 03:04:35;;;;;;;14.98;8.40;;;;;;;11.18;91.67;101546.09;5080366;28;20020;-85
2021/08/28 03:07:02;;;;;;;47.53;9.55;;;;;;;11.23;91.58;101542.72;5043562;28;20058;-85
2021/08/28 03:09:28;;;;;;;121.85;15.05;;;;;;;11.25;92.06;101537.13;5077169;28;20677;-85
2021/08/28 03:11:57;;;;;;;63.30;10.50;;;;;;;11.26;92.04;101542.25;5064024;28;20054;-84
2021/08/28 03:14:25;;;;;;;21.33;8.13;;;;;;;11.32;92.06;101546.69;5066021;28;20107;-84
2021/08/28 03:16:52;;;;;;;29.92;8.80;;;;;;;11.37;91.98;101544.13;5064404;28;20038;-85
2021/08/28 03:19:22;;;;;;;26.35;9.25;;;;;;;11.40;91.93;101532.91;5067615;28;20478;-85
2021/08/28 03:21:50;;;;;;;92.28;14.77;;;;;;;11.43;92.11;101537.81;5064987;28;20032;-85
2021/08/28 03:24:19;;;;;;;36.92;9.95;;;;;;;11.47;92.25;101546.19;5079691;28;21912;-85
2021/08/28 03:26:45;;;;;;;44.08;9.50;;;;;;;11.49;92.68;101542.25;5064336;28;20035;-85
2021/08/28 03:29:12;;;;;;;31.73;8.45;;;;;;;11.55;92.17;101535.13;5081486;28;20024;-85
2021/08/28 03:31:38;;;;;;;46.25;10.40;;;;;;;11.59;92.58;101528.22;5063366;28;20584;-85
2021/08/28 03:34:04;;;;;;;40.30;10.02;;;;;;;11.63;92.67;101532.06;5065393;28;20034;-85
2021/08/28 03:36:31;;;;;;;14.43;7.95;;;;;;;11.67;92.62;101532.41;5065313;28;20042;-85
2021/08/28 03:38:56;;;;;;;27.45;9.52;;;;;;;11.70;92.71;101531.97;5064756;28;20036;-84
2021/08/28 03:41:22;;;;;;;29.00;8.52;;;;;;;11.71;92.78;101529.03;5063295;28;20040;-85
2021/08/28 03:43:48;;;;;;;25.00;7.95;;;;;;;11.75;93.02;101526.69;5066870;28;20054;-84
2021/08/28 03:46:14;;;;;;;78.15;10.90;;;;;;;11.77;92.89;101525.41;5064693;28;20920;-86
2021/08/28 03:48:40;;;;;;;61.78;10.95;;;;;;;11.80;93.08;101530.31;5066344;28;20020;-85
2021/08/28 03:51:07;;;;;;;64.45;9.73;;;;;;;11.82;93.47;101529.25;5066340;28;20032;-85
2021/08/28 03:53:33;;;;;;;60.60;11.05;;;;;;;11.85;93.31;101539.53;5079655;28;20055;-85
2021/08/28 03:55:59;;;;;;;53.30;10.45;;;;;;;11.85;93.30;101535.00;5063637;28;20023;-86
2021/08/28 03:58:26;;;;;;;64.85;12.07;;;;;;;11.88;93.48;101533.72;5067757;28;20027;-85
2021/08/28 04:00:52;;;;;;;62.05;11.70;;;;;;;11.88;93.41;101533.72;5066979;28;20051;-85
2021/08/28 04:03:19;;;;;;;99.45;16.30;;;;;;;11.88;93.70;101533.72;5064688;28;20118;-86
2021/08/28 04:05:45;;;;;;;190.98;22.10;;;;;;;11.54;97.19;101530.00;5066192;28;20028;-85
2021/08/28 04:08:12;;;;;;;72.07;11.82;;;;;;;11.65;95.96;101538.00;5067508;28;20126;-85
2021/08/28 04:10:37;;;;;;;101.55;15.93;;;;;;;11.70;95.89;101542.69;5061168;28;20397;-85
2021/08/28 04:13:03;;;;;;;90.15;13.55;;;;;;;11.76;95.43;101541.75;5065223;28;20024;-84
2021/08/28 04:15:29;;;;;;;102.78;12.95;;;;;;;11.74;95.63;101541.16;5081962;28;20055;-85
2021/08/28 04:17:55;;;;;;;173.45;21.30;;;;;;;11.55;97.45;101543.19;5063160;28;20025;-84
2021/08/28 04:20:20;;;;;;;146.80;21.15;;;;;;;11.28;100.00;101550.88;5082190;28;20036;-85
2021/08/28 04:22:46;;;;;;;137.45;19.75;;;;;;;11.09;100.00;101552.03;5064273;28;20036;-85
2021/08/28 04:25:12;;;;;;;210.15;24.48;;;;;;;10.95;100.00;101558.66;5067945;28;20585;-84
2021/08/28 04:27:38;;;;;;;141.73;21.75;;;;;;;10.83;100.00;101561.31;5065853;28;20171;-85
2021/08/28 04:30:05;;;;;;;63.47;12.57;;;;;;;10.91;100.00;101566.34;5065240;28;20024;-85
2021/08/28 04:32:31;;;;;;;177.68;23.23;;;;;;;10.95;100.00;101561.31;5080009;28;20085;-85
2021/08/28 04:34:56;;;;;;;184.13;23.50;;;;;;;11.01;100.00;101555.88;5062606;28;20032;-84
2021/08/28 04:37:22;;;;;;;77.38;15.52;;;;;;;11.11;100.00;101558.78;5062508;28;20028;-84
2021/08/28 04:39:47;;;;;;;165.55;22.50;;;;;;;11.06;100.00;101552.50;5063387;28;20118;-84
2021/08/28 04:42:13;;;;;;;106.93;18.42;;;;;;;11.21;100.00;101555.53;5063065;28;20121;-85
2021/08/28 04:44:38;;;;;;;26.90;10.52;;;;;;;11.38;100.00;101556.50;5064275;28;20024;-84
2021/08/28 04:47:04;;;;;;;37.72;11.25;;;;;;;11.49;100.00;101561.03;5066513;28;20066;-84
2021/08/28 04:49:29;;;;;;;84.03;14.73;;;;;;;11.50;100.00;101551.13;5066905;28;20032;-84
2021/08/28 04:51:55;;;;;;;133.18;19.70;;;;;;;11.51;100.00;101550.06;5067630;28;20024;-85
2021/08/28 04:54:21;;;;;;;69.00;14.20;;;;;;;11.52;100.00;101546.34;5066102;28;20043;-84
2021/08/28 04:56:47;;;;;;;60.50;11.40;;;;;;;11.58;100.00;101545.38;5066091;28;20029;-85
2021/08/28 04:59:12;;;;;;;157.65;20.80;;;;;;;11.54;100.00;101554.97;5079865;28;20111;-84
2021/08/28 05:01:38;;;;;;;93.53;15.77;;;;;;;11.67;100.00;101554.72;5064071;28;20031;-85
2021/08/28 05:04:03;;;;;;;88.45;13.25;;;;;;;11.67;100.00;101565.47;5080029;28;20043;-85
2021/08/28 05:06:29;;;;;;;54.78;12.07;;;;;;;11.83;100.00;101565.81;5068846;28;20481;-83
2021/08/28 05:08:54;;;;;;;74.25;14.13;;;;;;;11.93;100.00;101566.03;5067965;28;20024;-85
2021/08/28 05:11:20;;;;;;;49.63;10.85;;;;;;;12.03;100.00;101575.13;5067634;28;20040;-85
2021/08/28 05:13:46;;;;;;;53.85;13.45;;;;;;;12.09;100.00;101576.03;5070265;28;20194;-84
2021/08/28 05:16:11;;;;;;;47.75;10.98;;;;;;;12.19;100.00;101572.72;5070500;28;20028;-84
2021/08/28 05:18:37;;;;;;;52.60;10.57;;;;;;;12.30;99.46;101577.25;5069097;28;20028;-84
2021/08/28 05:21:03;;;;;;;22.90;9.35;;;;;;;12.29;99.33;101581.81;5068425;28;20024;-85
2021/08/28 05:23:28;;;;;;;88.63;14.30;;;;;;;12.14;99.71;101581.50;5069757;28;20050;-85
2021/08/28 05:25:54;;;;;;;38.42;10.30;;;;;;;12.14;100.00;101580.69;5068223;28;20016;-85
2021/08/28 05:28:19;;;;;;;53.85;11.10;;;;;;;12.14;99.77;101578.81;5068149;28;20189;-85
2021/08/28 05:30:45;;;;;;;35.40;10.38;;;;;;;12.05;100.00;101575.69;5063006;28;20032;-83
2021/08/28 05:33:10;;;;;;;57.60;12.25;;;;;;;12.17;100.00;101580.22;5084227;28;20028;-84
2021/08/28 05:35:38;;;;;;;21.17;8.85;;;;;;;12.29;99.90;101581.00;5066016;28;20057;-85
2021/08/28 05:38:03;;;;;;;29.15;9.02;;;;;;;12.41;99.71;101581.78;5084870;28;20028;-84
2021/08/28 05:40:29;;;;;;;22.25;8.40;;;;;;;12.57;99.39;101586.38;5070800;28;20043;-84
2021/08/28 05:42:54;;;;;;;79.30;10.98;;;;;;;12.64;99.12;101580.84;5068556;28;20031;-84
2021/08/28 05:45:20;;;;;;;14.23;7.68;;;;;;;12.66;99.23;101578.72;5072507;28;20028;-84
2021/08/28 05:47:45;;;;;;;34.97;9.23;;;;;;;12.82;98.54;101577.94;5072349;28;20027;-85
2021/08/28 05:50:11;;;;;;;79.57;13.98;;;;;;;12.90;98.21;101590.97;5070554;28;20024;-84
2021/08/28 05:52:37;;;;;;;13.90;7.60;;;;;;;13.01;97.52;101591.97;5071713;28;20398;-84
2021/08/28 05:55:03;;;;;;;22.50;8.40;;;;;;;13.15;96.89;101589.81;5069142;28;20039;-84
2021/08/28 05:57:28;;;;;;;19.55;8.85;;;;;;;13.26;96.54;101595.09;5074948;28;20078;-84
2021/08/28 05:59:55;;;;;;;19.60;7.75;;;;;;;13.36;96.14;101593.66;5071513;28;20048;-85
2021/08/28 06:02:20;;;;;;;28.65;8.10;;;;;;;13.48;95.77;101597.09;5076471;28;20020;-85
2021/08/28 06:04:46;;;;;;;43.65;10.35;;;;;;;13.54;95.34;101599.59;5071556;28;20371;-84
2021/08/28 06:07:11;;;;;;;22.33;8.23;;;;;;;13.47;95.71;101598.97;5075021;28;20391;-84
2021/08/28 06:09:37;;;;;;;21.13;8.10;;;;;;;13.64;95.52;101598.09;5071654;28;20168;-84
2021/08/28 06:12:03;;;;;;;44.25;9.60;;;;;;;13.55;95.74;101598.53;5075572;28;20031;-85
2021/08/28 06:14:28;;;;;;;83.57;14.63;;;;;;;13.22;96.22;101598.53;5072344;28;20027;-85
2021/08/28 06:16:54;;;;;;;36.78;9.90;;;;;;;13.30;96.65;101595.47;5066266;28;20648;-84
2021/08/28 06:19:20;;;;;;;56.28;10.50;;;;;;;13.41;96.24;101594.53;5084882;28;20024;-85
2021/08/28 06:21:46;;;;;;;41.20;10.35;;;;;;;13.26;96.52;101589.72;5086885;28;20024;-85
2021/08/28 06:24:15;;;;;;;50.63;10.95;;;;;;;13.47;96.55;101590.88;5088907;28;20593;-85
2021/08/28 06:26:40;;;;;;;79.75;15.20;;;;;;;13.49;95.81;101593.31;5070842;28;20401;-85
2021/08/28 06:29:06;;;;;;;22.63;9.88;;;;;;;13.45;95.95;101589.47;5089146;28;20030;-86
2021/08/28 06:31:31;;;;;;;43.35;11.40;;;;;;;13.47;95.87;101592.75;5073498;28;20058;-85
2021/08/28 06:33:58;;;;;;;50.65;10.75;;;;;;;13.50;95.64;101598.47;5072726;28;20024;-84
2021/08/28 06:36:33;;;;;;;21.83;8.95;;;;;;;13.47;96.10;101593.56;5068129;28;20727;-85
2021/08/28 06:38:58;;;;;;;33.28;10.20;;;;;;;13.56;96.19;101592.06;5068331;28;20025;-85
2021/08/28 06:41:24;;;;;;;42.97;12.55;;;;;;;13.30;96.76;101582.00;5075124;28;20056;-84
2021/08/28 06:43:50;;;;;;;35.47;10.68;;;;;;;13.54;96.37;101591.50;5070706;28;20917;-84
2021/08/28 06:46:15;;;;;;;19.70;8.80;;;;;;;13.71;95.77;101594.19;5066478;28;20082;-85
2021/08/28 06:48:41;;;;;;;10.63;6.95;;;;;;;13.97;95.32;101592.63;5066948;28;20028;-84
2021/08/28 06:51:06;;;;;;;17.83;8.00;;;;;;;14.12;94.07;101592.81;5070280;28;20024;-86
2021/08/28 06:53:32;;;;;;;31.77;8.27;;;;;;;13.89;93.73;101593.06;5070434;28;20034;-85
2021/08/28 06:55:57;;;;;;;12.43;6.95;;;;;;;14.00;93.49;101592.13;5070307;28;20034;-84
2021/08/28 06:58:23;;;;;;;17.35;7.63;;;;;;;14.28;92.87;101593.81;5070965;28;20120;-86
2021/08/28 07:00:48;;;;;;;17.17;7.32;;;;;;;14.54;92.15;101597.63;5064790;28;20035;-84
2021/08/28 07:03:14;;;;;;;21.63;7.75;;;;;;;14.56;90.64;101592.00;5089604;28;20026;-85
2021/08/28 07:05:40;;;;;;;19.55;7.18;;;;;;;14.71;90.40;101589.44;5067456;28;20512;-85
2021/08/28 07:08:05;;;;;;;11.57;6.22;;;;;;;15.01;89.70;101591.63;5068012;28;20024;-85
2021/08/28 07:10:31;;;;;;;10.68;7.18;;;;;;;14.75;88.59;101593.28;5069862;28;20039;-86
2021/08/28 07:12:56;;;;;;;9.57;6.63;;;;;;;14.82;88.94;101589.31;5067890;28;20021;-85
2021/08/28 07:15:24;;;;;;;20.65;8.27;;;;;;;14.72;88.90;101583.81;5066935;28;20024;-85
2021/08/28 07:17:52;;;;;;;22.70;9.45;;;;;;;14.36;91.40;101592.56;5065387;28;20090;-84
2021/08/28 07:20:17;;;;;;;15.48;8.75;;;;;;;14.85;90.01;101587.97;5072924;28;20028;-85
2021/08/28 07:22:43;;;;;;;13.68;7.82;;;;;;;15.19;88.76;101591.22;5065953;28;20039;-84
2021/08/28 07:25:10;;;;;;;11.68;7.05;;;;;;;15.47;87.84;101589.28;5066787;28;20031;-84
2021/08/28 07:27:36;;;;;;;15.43;7.97;;;;;;;15.56;86.17;101588.53;5063106;28;20085;-86
2021/08/28 07:30:03;;;;;;;12.18;7.45;;;;;;;15.72;86.14;101586.75;5082519;28;20024;-84
2021/08/28 07:32:28;;;;;;;8.32;5.78;;;;;;;15.65;86.32;101588.88;5070511;28;20462;-84
2021/08/28 07:34:55;;;;;;;7.75;5.38;;;;;;;16.01;85.19;101593.41;5084361;28;20047;-84
2021/08/28 07:37:22;;;;;;;8.13;5.35;;;;;;;16.27;83.90;101585.38;5065486;28;20107;-84
2021/08/28 07:39:48;;;;;;;10.93;6.43;;;;;;;16.24;82.99;101591.31;5086498;28;20028;-85
2021/08/28 07:42:14;;;;;;;9.25;6.07;;;;;;;15.90;83.64;101586.31;5061267;28;20130;-84
2021/08/28 07:44:40;;;;;;;7.10;5.28;;;;;;;16.23;83.49;101585.09;5061383;28;20509;-83
2021/08/28 07:47:05;;;;;;;7.53;5.80;;;;;;;16.49;82.99;101585.16;5068689;28;20028;-83
2021/08/28 07:49:31;;;;;;;8.73;5.35;;;;;;;16.55;82.75;101576.81;5068297;28;20036;-84
2021/08/28 07:51:56;;;;;;;8.65;5.18;;;;;;;16.74;82.28;101585.25;5061416;28;21856;-85
2021/08/28 07:54:22;;;;;;;6.90;5.13;;;;;;;16.91;81.73;101580.41;5065019;28;20027;-83
2021/08/28 07:56:48;;;;;;;9.00;5.45;;;;;;;16.87;81.23;101579.28;5066079;28;20485;-83
2021/08/28 07:59:13;;;;;;;6.43;4.40;;;;;;;16.80;80.75;101591.47;5079795;28;20031;-84
2021/08/28 08:01:39;;;;;;;7.05;5.30;;;;;;;17.08;79.63;101592.88;5082762;28;20691;-84
2021/08/28 08:04:05;;;;;;;8.32;5.32;;;;;;;17.12;79.64;101583.91;5082109;28;20428;-84
2021/08/28 08:06:30;;;;;;;7.60;5.53;;;;;;;17.21;78.86;101593.09;5056512;28;20285;-84
2021/08/28 08:09:38;;;;;;;6.43;4.75;;;;;;;16.69;80.40;101587.13;5062575;28;20016;-83
2021/08/28 08:22:53;;;;;;;7.88;5.60;;;;;;;17.35;78.51;101601.50;4928405;29;20090;-84
2021/08/28 08:32:36;;;;;;;9.43;5.50;;;;;;;17.37;77.59;101604.75;4891534;29;20067;-84
2021/08/28 08:42:17;;;;;;;7.45;5.80;;;;;;;17.58;77.48;101610.94;4895139;29;20061;-85
2021/08/28 08:45:33;;;;;;;8.73;6.03;;;;;;;17.95;77.04;101615.22;4999323;28;20034;-83
2021/08/28 08:51:40;;;;;;;7.22;4.45;;;;;;;17.97;76.60;101607.66;4970395;28;20076;-84
2021/08/28 09:01:25;;;;;;;6.28;4.25;;;;;;;17.59;77.32;101606.34;4952369;28;20045;-83
2021/08/28 09:04:29;;;;;;;6.25;4.60;;;;;;;17.67;75.70;101608.50;4960510;28;20045;-84
2021/08/28 09:08:05;;;;;;;5.68;4.20;;;;;;;17.80;75.11;101616.91;4984669;28;20659;-84
2021/08/28 09:18:01;;;;;;;6.35;4.40;;;;;;;19.39;73.16;101606.78;4959727;28;20074;-84
2021/08/28 09:20:36;;;;;;;4.72;4.22;;;;;;;19.65;65.87;101607.34;5051654;28;20040;-84
2021/08/28 09:23:09;;;;;;;4.78;3.60;;;;;;;20.05;68.43;101607.97;5055467;28;20382;-84
2021/08/28 09:25:38;;;;;;;5.00;3.75;;;;;;;20.14;65.02;101615.22;5086060;28;20032;-84
2021/08/28 09:28:08;;;;;;;3.53;3.22;;;;;;;20.42;66.01;101608.06;5089704;28;20020;-84
2021/08/28 09:30:45;;;;;;;3.58;3.15;;;;;;;20.66;65.80;101610.75;5070413;28;20039;-85
2021/08/28 09:33:18;;;;;;;4.35;3.22;;;;;;;20.94;65.37;101600.75;5067095;28;20039;-85
2021/08/28 09:35:56;;;;;;;3.65;3.35;;;;;;;21.25;65.54;101603.81;5070675;28;20031;-84
2021/08/28 09:38:22;;;;;;;4.28;3.33;;;;;;;21.58;63.62;101595.63;5070229;28;20359;-84
2021/08/28 09:40:56;;;;;;;4.03;3.10;;;;;;;21.86;63.13;101591.78;5068920;28;20474;-84
2021/08/28 09:43:23;;;;;;;3.97;3.03;;;;;;;21.98;62.42;101597.53;5059837;28;20174;-85
2021/08/28 09:45:53;;;;;;;3.63;2.95;;;;;;;22.30;60.32;101591.16;5066102;28;20474;-85
2021/08/28 09:48:25;;;;;;;3.72;2.83;;;;;;;22.11;61.64;101586.94;5077399;28;20554;-85
2021/08/28 09:50:54;;;;;;;3.30;2.53;;;;;;;22.40;60.77;101584.66;5071143;28;20120;-85
2021/08/28 09:53:28;;;;;;;3.85;2.92;;;;;;;22.54;60.76;101595.56;5082651;28;20043;-84
2021/08/28 09:56:03;;;;;;;3.92;2.78;;;;;;;22.83;59.28;101590.53;5070733;28;20085;-85
2021/08/28 09:58:32;;;;;;;3.35;2.67;;;;;;;22.91;58.02;101588.97;5068681;28;20020;-84
2021/08/28 10:01:05;;;;;;;2.83;2.50;;;;;;;22.72;57.51;101591.84;5071555;28;20020;-85
2021/08/28 10:03:32;;;;;;;7.40;4.60;;;;;;;22.61;56.99;101579.53;5076522;28;20563;-84
2021/08/28 10:06:00;;;;;;;3.30;2.85;;;;;;;22.36;57.89;101591.84;5071629;28;20031;-84
2021/08/28 10:08:27;;;;;;;7.45;4.38;;;;;;;21.64;54.60;101583.50;5070117;28;20482;-85
2021/08/28 10:10:54;;;;;;;3.97;2.40;;;;;;;21.68;57.00;101581.78;5074949;28;20023;-85
2021/08/28 10:13:22;;;;;;;3.28;2.30;;;;;;;21.30;57.56;101590.09;5069954;28;20016;-85
2021/08/28 10:15:51;;;;;;;2.80;2.30;;;;;;;21.57;57.25;101594.81;5087551;28;20095;-85
2021/08/28 10:18:17;;;;;;;2.60;2.30;;;;;;;22.29;57.00;101586.81;5068457;28;20151;-84
2021/08/28 10:20:43;;;;;;;3.30;2.63;;;;;;;22.84;56.31;101591.34;5070828;28;20076;-85
2021/08/28 10:23:13;;;;;;;3.63;2.40;;;;;;;23.18;55.00;101591.56;5085711;28;20051;-85
2021/08/28 10:25:43;;;;;;;6.82;2.42;;;;;;;23.45;54.37;101574.16;5069448;28;20115;-84
2021/08/28 10:28:10;;;;;;;3.25;2.40;;;;;;;23.45;54.30;101581.56;5071191;28;20039;-85
2021/08/28 10:30:36;;;;;;;3.40;2.53;;;;;;;23.60;53.82;101578.44;5069133;28;20095;-84
2021/08/28 10:33:03;;;;;;;2.40;2.20;;;;;;;23.99;51.98;101576.81;5069628;28;20158;-84
2021/08/28 10:35:29;;;;;;;2.70;2.00;;;;;;;23.06;52.12;101577.66;5066292;28;20546;-84
2021/08/28 10:37:55;;;;;;;4.95;2.33;;;;;;;22.13;51.97;101587.44;5065743;28;20118;-85
2021/08/28 10:40:24;;;;;;;24.02;19.98;;;;;;;22.99;53.26;101587.44;5070990;28;20034;-85
2021/08/28 10:42:52;;;;;;;6.13;4.68;;;;;;;23.33;52.94;101573.13;5067017;28;20024;-86
2021/08/28 10:45:30;;;;;;;5.10;3.92;;;;;;;23.28;51.50;101570.53;5070774;28;20024;-84
2021/08/28 10:48:03;;;;;;;3.90;2.83;;;;;;;23.14;51.18;101570.63;5069806;28;20024;-85
2021/08/28 10:50:36;;;;;;;3.08;2.25;;;;;;;23.16;51.43;101574.69;5070270;28;20382;-84
2021/08/28 10:53:04;;;;;;;17.33;11.75;;;;;;;23.29;50.61;101562.03;5069109;28;22027;-86
2021/08/28 10:55:41;;;;;;;4.50;2.55;;;;;;;23.68;48.81;101569.47;5069962;28;20711;-86
2021/08/28 10:58:11;;;;;;;9.40;6.88;;;;;;;23.89;48.42;101563.44;5064277;28;20065;-86
2021/08/28 11:01:25;;;;;;;2.92;2.20;;;;;;;24.28;49.57;101568.81;5060855;28;20028;-86
2021/08/28 11:11:38;;;;;;;2.88;1.95;;;;;;;24.86;47.29;101562.06;4982649;28;20208;-86
2021/08/28 11:14:54;;;;;;;2.10;1.88;;;;;;;24.75;45.72;101559.97;4978050;28;20827;-85
2021/08/28 11:18:13;;;;;;;1.92;1.77;;;;;;;25.29;46.24;101555.69;5023178;28;20112;-85
2021/08/28 11:28:20;;;;;;;2.10;1.90;;;;;;;25.10;44.02;101555.25;4905175;29;20114;-85
2021/08/28 11:37:36;;;;;;;4.40;2.40;;;;;;;25.05;44.74;101545.28;4963480;28;20081;-86
2021/08/28 11:40:38;;;;;;;4.43;2.22;;;;;;;25.01;43.73;101555.28;4949673;28;20035;-86
2021/08/28 11:47:47;;;;;;;3.88;1.83;;;;;;;25.37;43.52;101549.38;4984596;28;20045;-85
2021/08/28 11:50:55;;;;;;;2.60;2.00;;;;;;;25.84;43.34;101549.31;4923754;29;20498;-85
2021/08/28 11:53:38;;;;;;;2.80;2.03;;;;;;;25.97;42.94;101552.97;4955182;28;20047;-87
2021/08/28 11:56:12;;;;;;;3.13;2.10;;;;;;;25.80;42.42;101549.19;5046723;28;20171;-86
2021/08/28 11:58:57;;;;;;;2.67;2.03;;;;;;;25.58;42.44;101543.94;5077926;28;20067;-86
2021/08/28 12:04:36;;;;;;;4.85;2.45;;;;;;;23.77;44.93;101544.88;5071908;28;20415;-85
2021/08/28 12:07:49;;;;;;;2.15;1.98;;;;;;;24.24;44.39;101548.69;5082324;28;20036;-85
2021/08/28 12:14:19;;;;;;;2.38;2.17;;;;;;;25.08;41.71;101546.56;5075933;28;20109;-86
2021/08/28 12:17:40;;;;;;;3.42;2.00;;;;;;;24.49;41.97;101543.56;5037562;28;20071;-86
2021/08/28 12:21:07;;;;;;;2.75;2.08;;;;;;;25.03;42.26;101544.81;5022402;28;20056;-85
2021/08/28 12:26:23;;;;;;;2.60;2.40;;;;;;;25.35;40.67;101537.94;5016633;28;20577;-85
2021/08/28 12:29:00;;;;;;;;;;;;;;;;;;;;;
2021/08/28 12:31:30;;;;;;;3.15;2.15;;;;;;;25.49;41.41;101538.50;5079007;28;20030;-86
2021/08/28 12:33:56;;;;;;;2.53;2.05;;;;;;;26.41;40.21;101541.38;5080736;28;20317;-85
2021/08/28 12:36:32;;;;;;;2.35;2.00;;;;;;;26.46;38.95;101543.13;5061620;28;20028;-86
2021/08/28 12:39:04;;;;;;;2.38;1.90;;;;;;;26.15;38.77;101538.78;5063374;28;20103;-86
2021/08/28 12:41:33;;;;;;;2.58;2.00;;;;;;;25.77;39.66;101527.91;5076129;28;20521;-86
2021/08/28 12:43:58;;;;;;;2.40;1.90;;;;;;;25.54;40.13;101537.53;5077582;28;20042;-86
2021/08/28 12:46:25;;;;;;;1.90;1.70;;;;;;;25.65;41.01;101530.50;5058782;28;20028;-86
2021/08/28 12:49:32;;;;;;;2.33;1.88;;;;;;;25.91;39.73;101530.41;5061039;28;20032;-86
2021/08/28 12:52:04;;;;;;;2.28;1.83;;;;;;;25.92;39.73;101525.72;4968657;28;20113;-86
2021/08/28 12:54:36;;;;;;;4.53;2.00;;;;;;;26.32;39.39;101534.31;4964997;28;20106;-86